createdAt,value
2022-08-01T00:00:09.830Z,962.16
2022-08-01T00:01:09.067Z,962.15
2022-08-01T00:02:09.734Z,962.17
2022-08-01T00:03:09.282Z,962.19
2022-08-01T00:05:09.083Z,962.18
2022-08-01T00:07:09.140Z,962.17
2022-08-01T00:08:09.093Z,962.16
2022-08-01T00:09:09.151Z,962.14
2022-08-01T00:10:09.129Z,962.17
2022-08-01T00:11:09.188Z,962.16
2022-08-01T00:12:09.449Z,962.18
2022-08-01T00:13:11.114Z,962.17
2022-08-01T00:15:09.102Z,962.15
2022-08-01T00:16:09.094Z,962.18
2022-08-01T00:17:09.109Z,962.16
2022-08-01T00:18:09.162Z,962.2
2022-08-01T00:19:09.103Z,962.18
2022-08-01T00:20:09.200Z,962.2
2022-08-01T00:22:09.388Z,962.18
2022-08-01T00:23:09.127Z,962.21
2022-08-01T00:24:14.294Z,962.2
2022-08-01T00:25:09.120Z,962.22
2022-08-01T00:26:09.199Z,962.19
2022-08-01T00:27:09.278Z,962.15
2022-08-01T00:28:09.131Z,962.18
2022-08-01T00:29:10.151Z,962.2
2022-08-01T00:30:10.581Z,962.18
2022-08-01T00:32:09.511Z,962.2
2022-08-01T00:33:09.301Z,962.19
2022-08-01T00:34:09.156Z,962.15
2022-08-01T00:35:09.147Z,962.17
2022-08-01T00:36:09.223Z,962.21
2022-08-01T00:37:09.159Z,962.22
2022-08-01T00:38:09.232Z,962.21
2022-08-01T00:39:09.287Z,962.22
2022-08-01T00:40:09.160Z,962.24
2022-08-01T00:41:09.227Z,962.27
2022-08-01T00:42:09.343Z,962.25
2022-08-01T00:43:09.275Z,962.24
2022-08-01T00:44:10.321Z,962.22
2022-08-01T00:45:10.324Z,962.24
2022-08-01T00:46:09.276Z,962.21
2022-08-01T00:47:09.173Z,962.19
2022-08-01T00:48:09.313Z,962.22
2022-08-01T00:50:13.362Z,962.18
2022-08-01T00:51:09.193Z,962.2
2022-08-01T00:52:09.457Z,962.17
2022-08-01T00:53:09.188Z,962.21
2022-08-01T00:54:09.307Z,962.23
2022-08-01T00:55:09.279Z,962.22
2022-08-01T00:56:09.339Z,962.25
2022-08-01T00:57:09.889Z,962.27
2022-08-01T00:58:09.214Z,962.24
2022-08-01T00:59:09.359Z,962.26
2022-08-01T01:01:09.230Z,962.27
2022-08-01T01:04:09.392Z,962.26
2022-08-01T01:05:09.219Z,962.27
2022-08-01T01:06:09.343Z,962.28
2022-08-01T01:07:09.308Z,962.3
2022-08-01T01:08:09.387Z,962.29
2022-08-01T01:10:09.318Z,962.3
2022-08-01T01:11:09.449Z,962.28
2022-08-01T01:12:09.513Z,962.26
2022-08-01T01:13:09.323Z,962.29
2022-08-01T01:15:09.246Z,962.27
2022-08-01T01:16:09.319Z,962.25
2022-08-01T01:17:09.391Z,962.3
2022-08-01T01:18:09.362Z,962.27
2022-08-01T01:19:09.328Z,962.32
2022-08-01T01:20:09.400Z,962.27
2022-08-01T01:21:09.365Z,962.28
2022-08-01T01:22:09.331Z,962.31
2022-08-01T01:24:09.267Z,962.33
2022-08-01T01:25:09.336Z,962.38
2022-08-01T01:26:09.293Z,962.37
2022-08-01T01:27:09.448Z,962.36
2022-08-01T01:28:09.314Z,962.37
2022-08-01T01:29:09.396Z,962.36
2022-08-01T01:30:09.384Z,962.35
2022-08-01T01:32:09.410Z,962.32
2022-08-01T01:35:09.426Z,962.29
2022-08-01T01:36:11.490Z,962.3
2022-08-01T01:37:09.466Z,962.28
2022-08-01T01:38:09.420Z,962.29
2022-08-01T01:39:09.387Z,962.27
2022-08-01T01:40:09.549Z,962.26
2022-08-01T01:42:09.393Z,962.28
2022-08-01T01:43:09.481Z,962.27
2022-08-01T01:44:09.433Z,962.29
2022-08-01T01:46:09.353Z,962.27
2022-08-01T01:47:09.436Z,962.28
2022-08-01T01:48:09.409Z,962.25
2022-08-01T01:50:09.436Z,962.27
2022-08-01T01:51:09.412Z,962.24
2022-08-01T01:52:09.528Z,962.23
2022-08-01T01:53:14.996Z,962.2
2022-08-01T01:55:09.487Z,962.19
2022-08-01T01:58:09.493Z,962.17
2022-08-01T01:59:09.463Z,962.21
2022-08-01T02:00:09.370Z,962.22
2022-08-01T02:01:14.313Z,962.19
2022-08-01T02:02:09.719Z,962.21
2022-08-01T02:03:09.481Z,962.25
2022-08-01T02:04:09.387Z,962.22
2022-08-01T02:05:09.377Z,962.19
2022-08-01T02:06:09.529Z,962.25
2022-08-01T02:07:09.488Z,962.24
2022-08-01T02:08:09.409Z,962.23
2022-08-01T02:09:10.393Z,962.24
2022-08-01T02:10:09.375Z,962.21
2022-08-01T02:11:09.387Z,962.22
2022-08-01T02:12:09.702Z,962.25
2022-08-01T02:13:09.393Z,962.27
2022-08-01T02:15:09.435Z,962.29
2022-08-01T02:16:09.512Z,962.28
2022-08-01T02:17:09.486Z,962.3
2022-08-01T02:18:09.435Z,962.26
2022-08-01T02:19:09.509Z,962.28
2022-08-01T02:21:10.433Z,962.3
2022-08-01T02:22:09.516Z,962.31
2022-08-01T02:23:09.510Z,962.3
2022-08-01T02:24:09.559Z,962.29
2022-08-01T02:25:09.420Z,962.25
2022-08-01T02:26:11.500Z,962.28
2022-08-01T02:27:09.663Z,962.3
2022-08-01T02:28:09.526Z,962.25
2022-08-01T02:29:09.596Z,962.27
2022-08-01T02:30:09.563Z,962.3
2022-08-01T02:31:09.431Z,962.29
2022-08-01T02:33:09.828Z,962.32
2022-08-01T02:34:09.658Z,962.34
2022-08-01T02:35:09.441Z,962.31
2022-08-01T02:36:28.546Z,962.32
2022-08-01T02:37:09.689Z,962.34
2022-08-01T02:38:09.615Z,962.37
2022-08-01T02:39:09.567Z,962.36
2022-08-01T02:40:09.545Z,962.39
2022-08-01T02:42:09.739Z,962.37
2022-08-01T02:43:09.551Z,962.41
2022-08-01T02:45:09.467Z,962.4
2022-08-01T02:46:09.468Z,962.41
2022-08-01T02:47:09.620Z,962.42
2022-08-01T02:48:09.590Z,962.38
2022-08-01T02:49:09.590Z,962.4
2022-08-01T02:50:10.109Z,962.38
2022-08-01T02:51:09.591Z,962.39
2022-08-01T02:53:09.625Z,962.38
2022-08-01T02:54:09.490Z,962.37
2022-08-01T02:55:09.563Z,962.39
2022-08-01T02:56:09.641Z,962.37
2022-08-01T02:57:09.990Z,962.34
2022-08-01T02:59:09.561Z,962.33
2022-08-01T03:00:09.786Z,962.38
2022-08-01T03:01:09.534Z,962.37
2022-08-01T03:02:10.120Z,962.35
2022-08-01T03:05:09.662Z,962.36
2022-08-01T03:06:09.624Z,962.34
2022-08-01T03:07:09.684Z,962.35
2022-08-01T03:08:12.042Z,962.34
2022-08-01T03:09:09.800Z,962.35
2022-08-01T03:10:09.695Z,962.34
2022-08-01T03:11:09.658Z,962.35
2022-08-01T03:12:09.541Z,962.3
2022-08-01T03:14:09.544Z,962.29
2022-08-01T03:15:09.890Z,962.32
2022-08-01T03:16:09.542Z,962.34
2022-08-01T03:17:09.558Z,962.3
2022-08-01T03:18:09.555Z,962.35
2022-08-01T03:20:09.666Z,962.34
2022-08-01T03:21:09.559Z,962.35
2022-08-01T03:22:10.808Z,962.33
2022-08-01T03:23:09.675Z,962.35
2022-08-01T03:24:09.561Z,962.33
2022-08-01T03:25:09.705Z,962.32
2022-08-01T03:26:09.570Z,962.34
2022-08-01T03:27:09.571Z,962.33
2022-08-01T03:30:09.652Z,962.38
2022-08-01T03:31:09.718Z,962.35
2022-08-01T03:33:09.649Z,962.38
2022-08-01T03:34:09.778Z,962.36
2022-08-01T03:36:09.758Z,962.37
2022-08-01T03:37:09.723Z,962.41
2022-08-01T03:38:16.369Z,962.34
2022-08-01T03:39:09.656Z,962.38
2022-08-01T03:40:09.739Z,962.37
2022-08-01T03:41:09.696Z,962.35
2022-08-01T03:42:11.151Z,962.41
2022-08-01T03:43:09.738Z,962.36
2022-08-01T03:44:09.701Z,962.44
2022-08-01T03:45:09.615Z,962.41
2022-08-01T03:47:09.847Z,962.43
2022-08-01T03:48:10.975Z,962.42
2022-08-01T03:49:09.768Z,962.45
2022-08-01T03:50:12.410Z,962.43
2022-08-01T03:51:09.675Z,962.42
2022-08-01T03:52:09.750Z,962.43
2022-08-01T03:53:09.720Z,962.42
2022-08-01T03:54:09.778Z,962.4
2022-08-01T03:55:09.737Z,962.43
2022-08-01T03:56:09.641Z,962.39
2022-08-01T03:57:09.796Z,962.41
2022-08-01T03:59:09.718Z,962.38
2022-08-01T04:01:15.306Z,962.4
2022-08-01T04:02:09.879Z,962.36
2022-08-01T04:03:09.656Z,962.37
2022-08-01T04:04:09.762Z,962.36
2022-08-01T04:06:09.800Z,962.34
2022-08-01T04:07:09.766Z,962.36
2022-08-01T04:08:09.737Z,962.39
2022-08-01T04:09:13.243Z,962.37
2022-08-01T04:10:09.792Z,962.38
2022-08-01T04:12:11.882Z,962.36
2022-08-01T04:13:09.903Z,962.37
2022-08-01T04:14:09.736Z,962.39
2022-08-01T04:15:09.806Z,962.38
2022-08-01T04:16:09.780Z,962.37
2022-08-01T04:17:09.872Z,962.4
2022-08-01T04:18:09.817Z,962.37
2022-08-01T04:19:09.695Z,962.38
2022-08-01T04:20:09.848Z,962.4
2022-08-01T04:22:09.969Z,962.42
2022-08-01T04:23:09.854Z,962.45
2022-08-01T04:24:09.823Z,962.46
2022-08-01T04:26:09.707Z,962.47
2022-08-01T04:27:09.835Z,962.5
2022-08-01T04:29:09.866Z,962.51
2022-08-01T04:30:09.841Z,962.54
2022-08-01T04:33:09.836Z,962.55
2022-08-01T04:34:09.799Z,962.53
2022-08-01T04:35:22.669Z,962.58
2022-08-01T04:36:09.901Z,962.6
2022-08-01T04:37:09.817Z,962.58
2022-08-01T04:38:09.876Z,962.52
2022-08-01T04:39:09.848Z,962.58
2022-08-01T04:40:09.748Z,962.61
2022-08-01T04:42:09.850Z,962.6
2022-08-01T04:43:09.913Z,962.65
2022-08-01T04:44:09.753Z,962.64
2022-08-01T04:47:09.888Z,962.62
2022-08-01T04:48:09.855Z,962.64
2022-08-01T04:49:09.985Z,962.6
2022-08-01T04:50:09.897Z,962.65
2022-08-01T04:51:09.862Z,962.73
2022-08-01T04:52:12.709Z,962.7
2022-08-01T04:53:09.895Z,962.69
2022-08-01T04:54:09.733Z,962.73
2022-08-01T04:55:09.844Z,962.74
2022-08-01T04:56:09.900Z,962.75
2022-08-01T04:57:09.799Z,962.73
2022-08-01T04:58:09.937Z,962.74
2022-08-01T04:59:09.911Z,962.78
2022-08-01T05:00:09.792Z,962.76
2022-08-01T05:01:10.045Z,962.83
2022-08-01T05:02:09.911Z,962.8
2022-08-01T05:03:09.881Z,962.81
2022-08-01T05:04:09.940Z,962.82
2022-08-01T05:05:09.914Z,962.83
2022-08-01T05:07:09.846Z,962.85
2022-08-01T05:08:09.919Z,962.87
2022-08-01T05:09:09.895Z,962.92
2022-08-01T05:10:09.878Z,962.88
2022-08-01T05:11:09.920Z,962.87
2022-08-01T05:12:09.886Z,962.89
2022-08-01T05:13:09.961Z,962.92
2022-08-01T05:15:15.066Z,962.94
2022-08-01T05:16:10.124Z,962.97
2022-08-01T05:18:09.887Z,962.96
2022-08-01T05:19:09.862Z,962.97
2022-08-01T05:20:09.924Z,962.94
2022-08-01T05:22:09.969Z,962.95
2022-08-01T05:23:10.233Z,962.9
2022-08-01T05:24:10.179Z,962.91
2022-08-01T05:25:09.874Z,962.94
2022-08-01T05:26:10.066Z,962.9
2022-08-01T05:27:11.611Z,962.91
2022-08-01T05:28:10.081Z,962.9
2022-08-01T05:29:09.945Z,962.93
2022-08-01T05:30:10.014Z,962.91
2022-08-01T05:31:09.877Z,962.82
2022-08-01T05:32:09.960Z,962.9
2022-08-01T05:33:09.918Z,962.89
2022-08-01T05:35:09.968Z,962.91
2022-08-01T05:37:09.887Z,962.9
2022-08-01T05:38:11.606Z,962.85
2022-08-01T05:39:10.020Z,962.89
2022-08-01T05:40:09.895Z,962.88
2022-08-01T05:41:09.897Z,962.89
2022-08-01T05:43:09.998Z,962.88
2022-08-01T05:44:09.978Z,962.89
2022-08-01T05:45:11.151Z,962.9
2022-08-01T05:46:09.997Z,962.91
2022-08-01T05:47:09.969Z,962.93
2022-08-01T05:48:10.046Z,962.9
2022-08-01T05:49:10.046Z,962.91
2022-08-01T05:50:09.974Z,962.9
2022-08-01T05:51:10.044Z,962.91
2022-08-01T05:52:10.008Z,962.9
2022-08-01T05:53:10.079Z,962.91
2022-08-01T05:54:09.947Z,962.89
2022-08-01T05:55:09.933Z,962.91
2022-08-01T05:56:10.087Z,962.94
2022-08-01T05:57:10.055Z,962.95
2022-08-01T05:58:12.160Z,962.96
2022-08-01T05:59:10.213Z,962.98
2022-08-01T06:00:10.052Z,962.99
2022-08-01T06:01:09.956Z,963.02
2022-08-01T06:02:10.410Z,962.98
2022-08-01T06:03:10.068Z,963
2022-08-01T06:04:10.040Z,963.01
2022-08-01T06:05:12.987Z,963.03
2022-08-01T06:06:10.064Z,963
2022-08-01T06:07:10.026Z,962.98
2022-08-01T06:08:10.061Z,963.03
2022-08-01T06:09:09.968Z,963
2022-08-01T06:11:09.998Z,963.03
2022-08-01T06:13:10.037Z,963
2022-08-01T06:15:09.977Z,963.01
2022-08-01T06:16:10.040Z,963.03
2022-08-01T06:17:10.014Z,963.01
2022-08-01T06:18:09.986Z,963
2022-08-01T06:19:10.046Z,963.03
2022-08-01T06:20:10.116Z,963.04
2022-08-01T06:21:10.085Z,962.99
2022-08-01T06:22:10.165Z,963.01
2022-08-01T06:24:10.183Z,963.03
2022-08-01T06:25:10.164Z,963.04
2022-08-01T06:26:10.124Z,963.05
2022-08-01T06:28:11.410Z,963.04
2022-08-01T06:29:10.227Z,963.06
2022-08-01T06:30:10.016Z,963.07
2022-08-01T06:31:10.163Z,963.05
2022-08-01T06:32:10.132Z,963.06
2022-08-01T06:33:10.144Z,963.05
2022-08-01T06:34:10.066Z,963.08
2022-08-01T06:35:10.140Z,963.09
2022-08-01T06:37:10.080Z,963.03
2022-08-01T06:38:10.142Z,963.05
2022-08-01T06:39:10.101Z,963.03
2022-08-01T06:40:13.511Z,963.01
2022-08-01T06:42:10.114Z,963
2022-08-01T06:43:10.080Z,963.01
2022-08-01T06:44:10.150Z,963.02
2022-08-01T06:47:10.156Z,962.98
2022-08-01T06:48:10.063Z,963.02
2022-08-01T06:49:10.114Z,962.99
2022-08-01T06:50:10.446Z,963.02
2022-08-01T06:51:10.408Z,963.11
2022-08-01T06:52:10.369Z,963.22
2022-08-01T06:53:10.079Z,963.35
2022-08-01T06:54:10.234Z,963.46
2022-08-01T06:55:10.204Z,963.54
2022-08-01T06:56:10.169Z,963.58
2022-08-01T06:57:11.098Z,963.63
2022-08-01T06:58:10.102Z,963.64
2022-08-01T06:59:10.167Z,963.59
2022-08-01T07:00:10.133Z,963.6
2022-08-01T07:01:10.168Z,963.58
2022-08-01T07:02:10.181Z,963.52
2022-08-01T07:03:11.133Z,963.49
2022-08-01T07:04:10.206Z,963.51
2022-08-01T07:05:10.095Z,963.48
2022-08-01T07:06:10.153Z,963.41
2022-08-01T07:07:10.214Z,963.37
2022-08-01T07:08:10.181Z,963.38
2022-08-01T07:09:14.034Z,963.43
2022-08-01T07:10:10.219Z,963.39
2022-08-01T07:11:10.186Z,963.42
2022-08-01T07:12:10.252Z,963.39
2022-08-01T07:13:10.224Z,963.3
2022-08-01T07:14:10.192Z,963.28
2022-08-01T07:15:10.261Z,963.27
2022-08-01T07:16:10.229Z,963.29
2022-08-01T07:17:10.221Z,963.25
2022-08-01T07:18:10.161Z,963.28
2022-08-01T07:19:10.147Z,963.24
2022-08-01T07:20:10.454Z,963.3
2022-08-01T07:21:16.459Z,963.27
2022-08-01T07:22:10.343Z,963.28
2022-08-01T07:23:14.241Z,963.31
2022-08-01T07:25:10.355Z,963.34
2022-08-01T07:27:22.972Z,963.28
2022-08-01T07:28:10.378Z,963.23
2022-08-01T07:29:10.180Z,963.29
2022-08-01T07:30:10.288Z,963.24
2022-08-01T07:31:10.248Z,963.2
2022-08-01T07:32:10.173Z,963.13
2022-08-01T07:33:10.272Z,963.09
2022-08-01T07:34:10.244Z,963.01
2022-08-01T07:35:10.177Z,963.03
2022-08-01T07:37:10.252Z,962.99
2022-08-01T07:38:12.729Z,962.94
2022-08-01T07:39:10.300Z,962.92
2022-08-01T07:41:10.196Z,962.94
2022-08-01T07:42:10.346Z,962.98
2022-08-01T07:43:10.197Z,962.95
2022-08-01T07:44:10.198Z,962.96
2022-08-01T07:45:10.304Z,963.02
2022-08-01T07:46:10.210Z,962.98
2022-08-01T07:47:10.333Z,963
2022-08-01T07:48:10.309Z,963.02
2022-08-01T07:49:10.426Z,963.03
2022-08-01T07:50:10.214Z,963.01
2022-08-01T07:51:10.237Z,962.99
2022-08-01T07:52:10.229Z,962.89
2022-08-01T07:53:10.225Z,962.83
2022-08-01T07:54:10.311Z,962.78
2022-08-01T07:55:10.225Z,962.72
2022-08-01T07:56:10.229Z,962.7
2022-08-01T07:59:10.232Z,962.76
2022-08-01T08:00:10.322Z,962.77
2022-08-01T08:01:10.395Z,962.81
2022-08-01T08:02:10.801Z,962.82
2022-08-01T08:03:10.326Z,962.81
2022-08-01T08:04:10.253Z,962.74
2022-08-01T08:05:10.262Z,962.73
2022-08-01T08:07:10.398Z,962.7
2022-08-01T08:08:10.262Z,962.66
2022-08-01T08:09:10.333Z,962.68
2022-08-01T08:10:10.293Z,962.71
2022-08-01T08:11:10.368Z,962.74
2022-08-01T08:12:10.646Z,962.66
2022-08-01T08:13:10.280Z,962.64
2022-08-01T08:14:10.372Z,962.63
2022-08-01T08:15:10.346Z,962.66
2022-08-01T08:16:10.320Z,962.6
2022-08-01T08:17:10.361Z,962.59
2022-08-01T08:18:10.294Z,962.58
2022-08-01T08:20:10.378Z,962.6
2022-08-01T08:21:10.420Z,962.53
2022-08-01T08:22:10.709Z,962.52
2022-08-01T08:23:10.394Z,962.44
2022-08-01T08:24:10.370Z,962.49
2022-08-01T08:25:10.443Z,962.45
2022-08-01T08:26:10.545Z,962.48
2022-08-01T08:27:10.352Z,962.43
2022-08-01T08:28:10.430Z,962.42
2022-08-01T08:29:10.333Z,962.48
2022-08-01T08:30:10.386Z,962.5
2022-08-01T08:32:10.716Z,962.49
2022-08-01T08:33:11.197Z,962.47
2022-08-01T08:34:10.434Z,962.43
2022-08-01T08:35:12.063Z,962.44
2022-08-01T08:36:10.508Z,962.41
2022-08-01T08:37:10.353Z,962.45
2022-08-01T08:38:10.436Z,962.49
2022-08-01T08:39:10.538Z,962.51
2022-08-01T08:40:10.442Z,962.5
2022-08-01T08:41:10.360Z,962.43
2022-08-01T08:42:10.387Z,962.44
2022-08-01T08:44:10.804Z,962.36
2022-08-01T08:45:11.773Z,962.35
2022-08-01T08:46:10.364Z,962.39
2022-08-01T08:47:10.367Z,962.38
2022-08-01T08:48:10.410Z,962.39
2022-08-01T08:50:10.454Z,962.37
2022-08-01T08:51:10.392Z,962.32
2022-08-01T08:52:10.428Z,962.34
2022-08-01T08:53:10.378Z,962.37
2022-08-01T08:55:10.396Z,962.4
2022-08-01T08:56:10.424Z,962.36
2022-08-01T08:57:10.392Z,962.32
2022-08-01T08:59:10.391Z,962.26
2022-08-01T09:00:10.397Z,962.24
2022-08-01T09:01:10.419Z,962.29
2022-08-01T09:03:10.443Z,962.33
2022-08-01T09:04:10.477Z,962.34
2022-08-01T09:05:10.416Z,962.36
2022-08-01T09:06:10.506Z,962.23
2022-08-01T09:07:10.474Z,962.21
2022-08-01T09:08:10.435Z,962.22
2022-08-01T09:09:10.505Z,962.16
2022-08-01T09:11:10.435Z,962.17
2022-08-01T09:12:10.623Z,962.14
2022-08-01T09:13:10.434Z,962.15
2022-08-01T09:14:10.434Z,962.17
2022-08-01T09:15:10.523Z,962.22
2022-08-01T09:16:10.596Z,962.23
2022-08-01T09:17:10.551Z,962.21
2022-08-01T09:18:10.449Z,962.19
2022-08-01T09:19:15.794Z,962.17
2022-08-01T09:20:10.557Z,962.18
2022-08-01T09:21:10.539Z,962.15
2022-08-01T09:22:10.649Z,962.14
2022-08-01T09:23:10.462Z,962.19
2022-08-01T09:24:10.541Z,962.25
2022-08-01T09:25:10.461Z,962.2
2022-08-01T09:26:10.568Z,962.16
2022-08-01T09:27:10.543Z,962.14
2022-08-01T09:28:10.498Z,962.2
2022-08-01T09:29:10.590Z,962.22
2022-08-01T09:30:11.175Z,962.16
2022-08-01T09:33:11.566Z,962.21
2022-08-01T09:34:10.641Z,962.13
2022-08-01T09:35:10.485Z,962.09
2022-08-01T09:36:13.196Z,962.08
2022-08-01T09:37:10.805Z,962.14
2022-08-01T09:38:10.686Z,962.15
2022-08-01T09:39:10.562Z,962.19
2022-08-01T09:41:10.588Z,962.17
2022-08-01T09:42:10.558Z,962.1
2022-08-01T09:43:10.761Z,962.12
2022-08-01T09:44:10.515Z,962.05
2022-08-01T09:45:10.745Z,962.1
2022-08-01T09:46:12.535Z,962.13
2022-08-01T09:47:10.764Z,962.11
2022-08-01T09:48:10.840Z,962.07
2022-08-01T09:49:10.959Z,962.1
2022-08-01T09:50:11.225Z,962.09
2022-08-01T09:51:10.615Z,962.1
2022-08-01T09:52:10.532Z,962.05
2022-08-01T09:53:10.601Z,962.07
2022-08-01T09:54:10.713Z,962.03
2022-08-01T09:55:10.566Z,962.06
2022-08-01T09:56:10.661Z,962.01
2022-08-01T09:57:10.687Z,961.94
2022-08-01T09:59:10.609Z,961.95
2022-08-01T10:00:19.410Z,961.9
2022-08-01T10:01:10.779Z,961.89
2022-08-01T10:02:10.563Z,961.84
2022-08-01T10:03:10.692Z,961.87
2022-08-01T10:04:10.862Z,961.83
2022-08-01T10:05:10.640Z,961.91
2022-08-01T10:06:10.747Z,961.92
2022-08-01T10:07:10.815Z,961.91
2022-08-01T10:08:10.770Z,961.84
2022-08-01T10:09:10.688Z,961.79
2022-08-01T10:10:10.584Z,961.81
2022-08-01T10:11:12.134Z,961.82
2022-08-01T10:12:15.015Z,961.79
2022-08-01T10:14:10.637Z,961.82
2022-08-01T10:15:10.703Z,961.88
2022-08-01T10:16:10.800Z,961.93
2022-08-01T10:18:16.904Z,961.88
2022-08-01T10:19:11.199Z,961.85
2022-08-01T10:20:12.895Z,961.81
2022-08-01T10:21:11.085Z,961.73
2022-08-01T10:22:10.612Z,961.72
2022-08-01T10:23:10.750Z,961.7
2022-08-01T10:24:10.710Z,961.73
2022-08-01T10:25:10.618Z,961.74
2022-08-01T10:26:10.747Z,961.75
2022-08-01T10:27:12.246Z,961.68
2022-08-01T10:28:10.749Z,961.71
2022-08-01T10:29:24.469Z,961.72
2022-08-01T10:30:19.262Z,961.77
2022-08-01T10:31:12.793Z,961.74
2022-08-01T10:32:10.751Z,961.68
2022-08-01T10:33:10.644Z,961.61
2022-08-01T10:35:14.996Z,961.58
2022-08-01T10:36:10.767Z,961.52
2022-08-01T10:37:10.642Z,961.51
2022-08-01T10:39:10.653Z,961.54
2022-08-01T10:40:29.146Z,961.5
2022-08-01T10:41:10.922Z,961.53
2022-08-01T10:43:10.707Z,961.54
2022-08-01T10:44:10.864Z,961.57
2022-08-01T10:45:10.677Z,961.56
2022-08-01T10:46:10.671Z,961.48
2022-08-01T10:47:10.778Z,961.38
2022-08-01T10:48:10.805Z,961.36
2022-08-01T10:49:10.744Z,961.34
2022-08-01T10:50:10.782Z,961.33
2022-08-01T10:51:17.651Z,961.4
2022-08-01T10:52:10.781Z,961.38
2022-08-01T10:55:10.816Z,961.44
2022-08-01T10:56:10.702Z,961.48
2022-08-01T10:57:10.951Z,961.42
2022-08-01T10:58:10.728Z,961.39
2022-08-01T10:59:11.866Z,961.42
2022-08-01T11:01:10.844Z,961.39
2022-08-01T11:02:10.795Z,961.4
2022-08-01T11:03:10.720Z,961.36
2022-08-01T11:04:15.924Z,961.37
2022-08-01T11:05:10.849Z,961.34
2022-08-01T11:06:10.830Z,961.31
2022-08-01T11:07:11.063Z,961.29
2022-08-01T11:08:10.805Z,961.36
2022-08-01T11:09:10.900Z,961.37
2022-08-01T11:10:14.760Z,961.41
2022-08-01T11:11:10.939Z,961.35
2022-08-01T11:12:13.062Z,961.37
2022-08-01T11:13:10.969Z,961.4
2022-08-01T11:14:10.823Z,961.39
2022-08-01T11:15:10.847Z,961.4
2022-08-01T11:16:15.507Z,961.37
2022-08-01T11:17:10.992Z,961.4
2022-08-01T11:18:10.759Z,961.38
2022-08-01T11:19:10.847Z,961.33
2022-08-01T11:20:10.917Z,961.27
2022-08-01T11:21:58.417Z,961.24
2022-08-01T11:23:10.944Z,961.16
2022-08-01T11:24:10.774Z,961.17
2022-08-01T11:25:10.864Z,961.2
2022-08-01T11:26:11.037Z,961.17
2022-08-01T11:27:10.779Z,961.11
2022-08-01T11:28:14.868Z,961.09
2022-08-01T11:29:19.256Z,961.1
2022-08-01T11:30:13.017Z,961.11
2022-08-01T11:31:13.619Z,961.12
2022-08-01T11:32:10.976Z,961.1
2022-08-01T11:34:10.863Z,961.11
2022-08-01T11:35:10.803Z,961.13
2022-08-01T11:36:10.903Z,961.1
2022-08-01T11:37:11.132Z,961.08
2022-08-01T11:38:10.950Z,961.03
2022-08-01T11:39:13.026Z,960.95
2022-08-01T11:40:10.969Z,960.93
2022-08-01T11:41:10.855Z,960.98
2022-08-01T11:42:10.913Z,960.99
2022-08-01T11:44:11.730Z,960.95
2022-08-01T11:45:12.466Z,961.03
2022-08-01T11:46:10.983Z,961.01
2022-08-01T11:47:11.172Z,961.06
2022-08-01T11:50:11.010Z,961.09
2022-08-01T11:51:13.155Z,961.08
2022-08-01T11:52:10.895Z,961.12
2022-08-01T11:54:10.930Z,961.11
2022-08-01T11:55:11.598Z,961.1
2022-08-01T11:56:10.967Z,961.06
2022-08-01T11:57:11.013Z,961.02
2022-08-01T11:58:22.092Z,961.04
2022-08-01T11:59:15.304Z,961.01
2022-08-01T12:00:11.142Z,960.99
2022-08-01T12:01:10.925Z,960.96
2022-08-01T12:02:11.126Z,960.9
2022-08-01T12:04:10.927Z,960.91
2022-08-01T12:05:11.788Z,960.94
2022-08-01T12:06:10.993Z,960.9
2022-08-01T12:07:11.016Z,960.91
2022-08-01T12:08:10.982Z,960.92
2022-08-01T12:09:12.145Z,960.88
2022-08-01T12:10:10.995Z,960.81
2022-08-01T12:11:11.106Z,960.78
2022-08-01T12:12:10.944Z,960.76
2022-08-01T12:13:11.019Z,960.7
2022-08-01T12:14:10.905Z,960.69
2022-08-01T12:15:10.914Z,960.68
2022-08-01T12:16:11.010Z,960.65
2022-08-01T12:17:10.985Z,960.66
2022-08-01T12:18:10.968Z,960.7
2022-08-01T12:19:11.568Z,960.72
2022-08-01T12:21:10.978Z,960.73
2022-08-01T12:22:11.037Z,960.71
2022-08-01T12:23:11.011Z,960.6
2022-08-01T12:24:10.964Z,960.53
2022-08-01T12:25:11.035Z,960.52
2022-08-01T12:27:10.963Z,960.51
2022-08-01T12:28:10.953Z,960.52
2022-08-01T12:30:11.076Z,960.47
2022-08-01T12:31:12.715Z,960.49
2022-08-01T12:32:11.123Z,960.51
2022-08-01T12:33:10.966Z,960.59
2022-08-01T12:34:11.049Z,960.61
2022-08-01T12:35:11.666Z,960.56
2022-08-01T12:36:14.573Z,960.53
2022-08-01T12:37:11.360Z,960.48
2022-08-01T12:38:11.120Z,960.52
2022-08-01T12:39:10.978Z,960.53
2022-08-01T12:40:11.050Z,960.54
2022-08-01T12:41:11.120Z,960.55
2022-08-01T12:43:15.739Z,960.61
2022-08-01T12:44:11.016Z,960.57
2022-08-01T12:46:11.066Z,960.56
2022-08-01T12:47:10.991Z,960.55
2022-08-01T12:48:10.997Z,960.57
2022-08-01T12:49:11.082Z,960.55
2022-08-01T12:50:11.004Z,960.57
2022-08-01T12:51:11.094Z,960.51
2022-08-01T12:52:13.337Z,960.5
2022-08-01T12:53:11.185Z,960.48
2022-08-01T12:54:11.117Z,960.52
2022-08-01T12:55:12.297Z,960.49
2022-08-01T12:56:11.074Z,960.47
2022-08-01T12:57:11.016Z,960.45
2022-08-01T12:58:15.774Z,960.41
2022-08-01T12:59:11.036Z,960.47
2022-08-01T13:00:11.033Z,960.51
2022-08-01T13:01:11.487Z,960.52
2022-08-01T13:02:11.064Z,960.53
2022-08-01T13:03:11.102Z,960.5
2022-08-01T13:04:11.079Z,960.48
2022-08-01T13:05:11.037Z,960.53
2022-08-01T13:06:11.118Z,960.55
2022-08-01T13:07:11.211Z,960.48
2022-08-01T13:08:11.149Z,960.49
2022-08-01T13:09:11.121Z,960.43
2022-08-01T13:10:11.097Z,960.42
2022-08-01T13:11:11.057Z,960.35
2022-08-01T13:12:11.129Z,960.34
2022-08-01T13:13:11.192Z,960.3
2022-08-01T13:14:11.254Z,960.26
2022-08-01T13:15:11.068Z,960.24
2022-08-01T13:16:12.275Z,960.25
2022-08-01T13:17:14.052Z,960.28
2022-08-01T13:18:11.214Z,960.23
2022-08-01T13:19:11.092Z,960.19
2022-08-01T13:21:11.084Z,960.25
2022-08-01T13:22:11.295Z,960.29
2022-08-01T13:23:11.173Z,960.3
2022-08-01T13:24:11.331Z,960.24
2022-08-01T13:25:11.096Z,960.19
2022-08-01T13:26:11.295Z,960.17
2022-08-01T13:27:11.340Z,960.14
2022-08-01T13:28:11.211Z,960.11
2022-08-01T13:29:11.099Z,960.1
2022-08-01T13:31:11.222Z,960.08
2022-08-01T13:32:11.186Z,960.12
2022-08-01T13:33:11.116Z,960.17
2022-08-01T13:34:11.218Z,960.18
2022-08-01T13:35:11.183Z,960.24
2022-08-01T13:36:11.256Z,960.18
2022-08-01T13:37:11.125Z,960.14
2022-08-01T13:38:11.131Z,960.19
2022-08-01T13:39:11.167Z,960.24
2022-08-01T13:40:11.221Z,960.23
2022-08-01T13:41:11.136Z,960.24
2022-08-01T13:42:11.158Z,960.29
2022-08-01T13:43:11.135Z,960.25
2022-08-01T13:44:11.337Z,960.19
2022-08-01T13:45:11.850Z,960.12
2022-08-01T13:46:11.242Z,960.08
2022-08-01T13:47:15.030Z,960.12
2022-08-01T13:48:11.690Z,960.16
2022-08-01T13:49:15.214Z,960.2
2022-08-01T13:50:11.165Z,960.14
2022-08-01T13:51:21.765Z,960.1
2022-08-01T13:52:11.245Z,960.06
2022-08-01T13:53:11.276Z,960.12
2022-08-01T13:54:11.281Z,960.19
2022-08-01T13:55:11.247Z,960.18
2022-08-01T13:56:11.211Z,960.24
2022-08-01T13:57:11.291Z,960.3
2022-08-01T13:58:11.259Z,960.34
2022-08-01T13:59:11.208Z,960.36
2022-08-01T14:00:11.186Z,960.32
2022-08-01T14:01:11.276Z,960.24
2022-08-01T14:02:11.261Z,960.27
2022-08-01T14:03:11.190Z,960.26
2022-08-01T14:04:11.264Z,960.19
2022-08-01T14:05:11.227Z,960.12
2022-08-01T14:06:11.209Z,960.1
2022-08-01T14:07:14.515Z,960.08
2022-08-01T14:08:11.430Z,960.1
2022-08-01T14:09:17.641Z,960.08
2022-08-01T14:10:19.134Z,960.09
2022-08-01T14:12:11.387Z,960.1
2022-08-01T14:13:11.640Z,960.06
2022-08-01T14:14:11.226Z,960.05
2022-08-01T14:15:11.222Z,960.07
2022-08-01T14:16:11.273Z,960.08
2022-08-01T14:17:11.240Z,960.06
2022-08-01T14:19:11.230Z,960.03